Time;durP1;ratioP1;P1;durP2;ratioP2;P2;SDS_P1;SDS_P2;PMS_P1;PMS_P2;Temp;Humidity;BMP_temperature;BMP_pressure;BME280_temperature;BME280_humidity;BME280_pressure;Samples;Min_cycle;Max_cycle;Signal;HPM_P1;HPM_P2
2022/12/04 00:00:16;;;;;;;40.13;20.23;;;;;;;2.96;58.59;101238.78;680675;29;1076;-84
2022/12/04 00:00:37;;;;;;;39.13;20.17;;;;;;;3.03;58.51;101241.75;680708;29;1154;-84
2022/12/04 00:01:02;;;;;;;40.30;21.23;;;;;;;3.06;58.28;101241.97;678208;29;946;-84
2022/12/04 00:01:26;;;;;;;37.25;20.83;;;;;;;3.08;58.45;101255.84;675419;29;1643;-84
2022/12/04 00:01:46;;;;;;;39.15;20.83;;;;;;;2.94;58.49;101232.59;675567;29;1002;-85
2022/12/04 00:02:07;;;;;;;37.87;20.17;;;;;;;2.98;58.46;101237.19;673096;29;1031;-84
2022/12/04 00:02:29;;;;;;;37.53;20.02;;;;;;;2.98;58.31;101233.69;678074;29;1191;-85
2022/12/04 00:02:49;;;;;;;37.28;20.77;;;;;;;2.97;58.56;101237.97;680778;29;1393;-84
2022/12/04 00:03:13;;;;;;;38.88;20.98;;;;;;;3.01;58.59;101229.63;678019;29;1222;-84
2022/12/04 00:03:34;;;;;;;38.35;20.80;;;;;;;3.06;58.56;101236.81;670379;29;1362;-84
2022/12/04 00:04:00;;;;;;;39.13;21.08;;;;;;;3.04;58.52;101238.38;675707;29;788;-84
2022/12/04 00:04:20;;;;;;;37.65;20.58;;;;;;;3.10;58.28;101243.94;677365;29;1279;-84
2022/12/04 00:04:41;;;;;;;37.35;20.10;;;;;;;2.99;58.17;101220.00;675561;29;1382;-84
2022/12/04 00:05:04;;;;;;;36.55;19.90;;;;;;;3.04;58.54;101226.38;675629;29;1103;-84
2022/12/04 00:05:25;;;;;;;39.17;21.00;;;;;;;3.04;58.47;101222.88;672769;29;1250;-84
2022/12/04 00:05:45;;;;;;;38.97;20.98;;;;;;;3.03;58.22;101221.09;670376;29;1108;-85
2022/12/04 00:06:17;;;;;;;37.08;20.25;;;;;;;3.00;58.39;101222.69;677639;29;1291;-84
2022/12/04 00:06:37;;;;;;;38.25;21.02;;;;;;;3.05;58.14;101235.03;680695;29;1122;-84
2022/12/04 00:06:58;;;;;;;38.80;20.60;;;;;;;2.95;58.33;101226.66;675547;29;1444;-84
2022/12/04 00:07:19;;;;;;;37.83;19.67;;;;;;;2.98;58.45;101229.44;675402;29;995;-85
2022/12/04 00:07:51;;;;;;;39.80;19.53;;;;;;;3.06;58.57;101229.06;672644;29;1911;-84
2022/12/04 00:08:12;;;;;;;39.22;20.48;;;;;;;3.06;58.51;101237.69;675380;29;1264;-84
2022/12/04 00:08:34;;;;;;;38.90;20.95;;;;;;;3.09;58.26;101239.56;678002;29;1180;-84
2022/12/04 00:08:54;;;;;;;38.53;21.08;;;;;;;3.09;58.37;101243.06;675544;29;1300;-84
2022/12/04 00:09:15;;;;;;;39.40;20.73;;;;;;;3.07;58.42;101238.59;678121;29;1107;-84
2022/12/04 00:09:36;;;;;;;39.53;20.38;;;;;;;3.06;58.44;101231.66;680892;29;994;-84
2022/12/04 00:09:56;;;;;;;37.10;19.55;;;;;;;3.06;58.27;101240.25;680791;29;1197;-84
2022/12/04 00:10:17;;;;;;;36.50;19.67;;;;;;;3.27;57.94;101229.56;678083;29;1248;-84
2022/12/04 00:11:02;;;;;;;37.73;19.90;;;;;;;3.61;57.20;101236.91;677696;29;1187;-84
2022/12/04 00:11:26;;;;;;;41.17;19.63;;;;;;;3.65;56.98;101231.16;675349;29;1212;-84
2022/12/04 00:11:47;;;;;;;38.95;19.88;;;;;;;3.66;56.58;101232.94;678001;29;1361;-84
2022/12/04 00:12:08;;;;;;;39.35;20.05;;;;;;;3.73;56.72;101233.34;677999;29;1229;-84
2022/12/04 00:12:29;;;;;;;39.25;20.85;;;;;;;3.73;56.71;101229.03;680748;29;1155;-84
2022/12/04 00:12:49;;;;;;;39.70;20.90;;;;;;;3.73;56.43;101229.03;680896;29;737;-84
2022/12/04 00:13:10;;;;;;;37.90;20.77;;;;;;;3.79;56.37;101233.69;683345;29;1196;-84
2022/12/04 00:13:32;;;;;;;36.72;20.13;;;;;;;3.81;56.40;101233.00;681204;29;1142;-84
2022/12/04 00:13:53;;;;;;;36.45;19.63;;;;;;;3.72;56.28;101221.22;680848;29;1240;-85
2022/12/04 00:14:14;;;;;;;36.58;19.83;;;;;;;3.79;56.26;101226.84;678111;29;1042;-85
2022/12/04 00:14:34;;;;;;;36.63;20.23;;;;;;;3.80;56.37;101235.50;677909;29;1659;-84
2022/12/04 00:14:55;;;;;;;37.83;20.58;;;;;;;3.77;56.30;101225.88;680999;29;1206;-84
2022/12/04 00:15:16;;;;;;;36.20;20.35;;;;;;;3.78;55.90;101216.44;678213;29;1120;-84
2022/12/04 00:15:40;;;;;;;35.23;19.50;;;;;;;3.88;56.05;101238.56;675561;29;1160;-84
2022/12/04 00:16:06;;;;;;;36.42;19.83;;;;;;;3.87;56.04;101231.63;675764;29;906;-84
2022/12/04 00:16:31;;;;;;;41.25;20.98;;;;;;;3.91;55.93;101233.56;678181;29;1153;-84
2022/12/04 00:16:51;;;;;;;40.97;21.02;;;;;;;3.79;55.82;101216.53;675535;29;1249;-84
2022/12/04 00:17:12;;;;;;;40.58;21.33;;;;;;;3.84;55.78;101229.72;672811;29;1309;-84
2022/12/04 00:17:33;;;;;;;40.93;21.83;;;;;;;3.83;55.95;101226.28;677999;29;1207;-84
2022/12/04 00:17:53;;;;;;;42.22;21.92;;;;;;;3.85;55.77;101230.63;677897;29;1246;-84
2022/12/04 00:18:14;;;;;;;40.92;21.30;;;;;;;3.85;56.47;101228.06;677796;29;1214;-84
2022/12/04 00:18:35;;;;;;;41.30;20.73;;;;;;;3.84;55.99;101224.56;675214;29;1213;-84
2022/12/04 00:18:56;;;;;;;40.50;20.63;;;;;;;3.86;56.15;101229.84;678088;29;884;-84
2022/12/04 00:19:18;;;;;;;39.20;20.23;;;;;;;3.83;55.81;101223.69;672591;29;1367;-84
2022/12/04 00:19:39;;;;;;;37.10;20.42;;;;;;;3.87;55.82;101227.34;675069;29;1004;-84
2022/12/04 00:20:00;;;;;;;37.33;20.38;;;;;;;3.90;55.78;101236.97;677933;29;1140;-85
2022/12/04 00:20:21;;;;;;;37.67;20.63;;;;;;;3.86;55.92;101224.66;675033;29;1149;-84
2022/12/04 00:20:42;;;;;;;38.80;21.45;;;;;;;3.93;56.06;101238.03;672531;29;1187;-84
2022/12/04 00:21:04;;;;;;;38.00;20.67;;;;;;;3.90;55.89;101232.69;672609;29;1114;-85
2022/12/04 00:21:25;;;;;;;39.08;20.90;;;;;;;3.96;55.88;101234.78;669921;29;1395;-84
2022/12/04 00:21:45;;;;;;;38.80;20.60;;;;;;;3.92;55.89;101227.63;670060;29;1210;-84
2022/12/04 00:22:06;;;;;;;40.75;21.13;;;;;;;3.87;56.14;101226.44;672685;29;1156;-84
2022/12/04 00:22:27;;;;;;;40.28;20.48;;;;;;;3.91;55.80;101231.00;675285;29;1140;-84
2022/12/04 00:22:47;;;;;;;40.00;20.70;;;;;;;3.92;55.87;101219.91;672693;29;1246;-84
2022/12/04 00:23:08;;;;;;;38.25;20.60;;;;;;;3.92;55.48;101217.31;677261;29;1106;-84
2022/12/04 00:23:28;;;;;;;37.33;20.60;;;;;;;3.91;55.45;101223.25;680414;29;1151;-84
2022/12/04 00:23:50;;;;;;;37.63;20.37;;;;;;;3.98;55.74;101235.75;678080;29;1143;-84
2022/12/04 00:24:11;;;;;;;38.03;20.58;;;;;;;3.89;55.72;101227.44;672738;29;1263;-84
2022/12/04 00:24:33;;;;;;;40.17;21.20;;;;;;;3.88;55.95;101223.06;678173;29;995;-84
2022/12/04 00:24:53;;;;;;;39.28;20.98;;;;;;;3.86;55.95;101220.38;680734;29;1118;-84
2022/12/04 00:25:14;;;;;;;40.60;20.98;;;;;;;3.97;55.84;101233.97;680550;29;999;-84
2022/12/04 00:25:34;;;;;;;39.63;20.90;;;;;;;3.89;56.11;101224.84;680703;29;1081;-84
2022/12/04 00:26:00;;;;;;;38.67;20.02;;;;;;;3.82;56.13;101214.13;683403;29;1226;-84
2022/12/04 00:26:26;;;;;;;38.00;20.20;;;;;;;3.87;56.28;101223.88;680543;29;1044;-83
2022/12/04 00:26:47;;;;;;;38.97;20.77;;;;;;;3.86;55.94;101219.50;677909;29;2035;-84
2022/12/04 00:27:08;;;;;;;39.30;21.43;;;;;;;3.87;56.26;101216.13;678224;29;1135;-84
2022/12/04 00:27:29;;;;;;;39.75;21.23;;;;;;;3.89;56.14;101222.25;680547;29;1975;-85
2022/12/04 00:27:49;;;;;;;41.63;21.13;;;;;;;3.91;55.82;101219.00;677986;29;1205;-84
2022/12/04 00:28:11;;;;;;;41.50;20.98;;;;;;;3.94;56.02;101229.50;677898;29;1135;-84
2022/12/04 00:28:33;;;;;;;41.28;21.13;;;;;;;3.94;56.15;101233.78;678036;29;1129;-84
2022/12/04 00:28:54;;;;;;;41.15;21.10;;;;;;;3.96;55.98;101227.94;678148;29;883;-84
2022/12/04 00:29:15;;;;;;;40.74;21.28;;;;;;;3.89;56.29;101220.59;675403;29;1094;-84
2022/12/04 00:29:35;;;;;;;39.67;21.00;;;;;;;3.90;56.05;101217.22;677519;29;992;-84
2022/12/04 00:29:56;;;;;;;38.95;21.05;;;;;;;3.93;55.95;101221.69;678136;29;752;-84
2022/12/04 00:30:39;;;;;;;41.08;21.23;;;;;;;4.01;55.97;101235.97;680641;29;1191;-84
2022/12/04 00:31:04;;;;;;;39.75;21.10;;;;;;;3.96;55.85;101232.19;677990;29;1498;-84
2022/12/04 00:31:27;;;;;;;38.22;21.13;;;;;;;3.94;55.89;101234.66;677982;29;1106;-84
2022/12/04 00:31:48;;;;;;;39.40;21.70;;;;;;;3.88;55.88;101223.06;675331;29;1397;-84
2022/12/04 00:32:08;;;;;;;38.90;21.35;;;;;;;3.92;55.83;101225.06;675352;29;1246;-84
2022/12/04 00:32:29;;;;;;;35.28;19.98;;;;;;;3.93;56.06;101229.41;672616;29;1147;-84
2022/12/04 00:32:49;;;;;;;33.37;19.13;;;;;;;3.96;56.00;101232.19;678146;29;1264;-84
2022/12/04 00:33:11;;;;;;;33.55;19.48;;;;;;;3.97;55.77;101239.13;683275;29;1106;-84
2022/12/04 00:33:33;;;;;;;35.40;20.45;;;;;;;3.92;56.04;101225.06;683317;28;1096;-84
2022/12/04 00:33:54;;;;;;;36.75;20.52;;;;;;;3.95;55.91;101232.97;680720;29;1261;-84
2022/12/04 00:34:14;;;;;;;37.85;20.38;;;;;;;3.99;55.83;101240.13;677985;29;1090;-85
2022/12/04 00:34:35;;;;;;;39.17;20.30;;;;;;;3.89;56.25;101228.34;672865;29;1115;-85
2022/12/04 00:34:55;;;;;;;40.28;20.83;;;;;;;3.89;55.81;101224.84;672428;29;1209;-84
2022/12/04 00:35:16;;;;;;;41.05;21.40;;;;;;;3.91;55.96;101225.81;672684;29;1189;-84
2022/12/04 00:35:37;;;;;;;39.03;21.07;;;;;;;3.96;56.22;101246.00;672842;29;1059;-84
2022/12/04 00:35:59;;;;;;;39.40;21.10;;;;;;;3.96;56.13;101232.19;675444;29;1184;-85
2022/12/04 00:36:22;;;;;;;39.22;21.08;;;;;;;3.89;55.88;101220.59;678025;29;1267;-85
2022/12/04 00:36:43;;;;;;;37.33;20.52;;;;;;;3.87;56.13;101229.03;672981;29;1314;-84
2022/12/04 00:37:03;;;;;;;39.07;20.60;;;;;;;3.89;55.97;101224.84;672911;29;1114;-84
2022/12/04 00:37:24;;;;;;;40.78;20.63;;;;;;;3.91;56.01;101229.31;675357;29;1097;-84
2022/12/04 00:37:45;;;;;;;42.05;21.05;;;;;;;3.95;56.05;101231.31;675360;29;1276;-84
2022/12/04 00:38:05;;;;;;;39.00;20.50;;;;;;;3.89;56.08;101224.84;675381;29;1329;-84
2022/12/04 00:38:26;;;;;;;39.50;20.83;;;;;;;3.91;55.95;101233.56;675521;29;1107;-84
2022/12/04 00:38:47;;;;;;;38.10;20.40;;;;;;;3.93;56.05;101234.59;675537;29;1094;-84
2022/12/04 00:39:08;;;;;;;36.95;20.40;;;;;;;3.97;56.23;101244.28;675469;29;1046;-85
2022/12/04 00:39:29;;;;;;;36.47;20.45;;;;;;;3.96;55.48;101232.19;675413;29;1085;-84
2022/12/04 00:39:49;;;;;;;38.00;20.85;;;;;;;3.96;55.72;101227.03;680784;29;1289;-84
2022/12/04 00:40:10;;;;;;;39.23;21.53;;;;;;;4.00;55.67;101226.44;683293;28;1142;-84
2022/12/04 00:40:31;;;;;;;39.78;21.40;;;;;;;3.92;55.86;101220.75;677918;29;1291;-84
2022/12/04 00:40:52;;;;;;;39.90;21.20;;;;;;;3.89;55.55;101219.69;680799;29;844;-84
2022/12/04 00:41:15;;;;;;;38.87;20.27;;;;;;;3.96;55.54;101216.69;683123;29;1177;-84
2022/12/04 00:41:35;;;;;;;40.15;20.42;;;;;;;3.96;55.89;101220.19;683316;28;1376;-85
2022/12/04 00:41:56;;;;;;;40.50;20.00;;;;;;;3.90;55.87;101216.31;680695;29;1437;-84
2022/12/04 00:42:16;;;;;;;40.92;19.85;;;;;;;3.91;55.80;101224.16;675299;29;1138;-84
2022/12/04 00:42:37;;;;;;;40.60;19.83;;;;;;;3.97;55.75;101231.38;677996;29;1271;-84
2022/12/04 00:42:58;;;;;;;39.67;19.90;;;;;;;3.95;55.73;101230.41;675430;29;1078;-83
2022/12/04 00:43:20;;;;;;;40.63;19.60;;;;;;;3.96;55.64;101227.03;680569;29;1096;-84
2022/12/04 00:43:41;;;;;;;38.80;19.25;;;;;;;3.95;56.11;101218.41;680657;29;1388;-84
2022/12/04 00:44:13;;;;;;;38.63;19.52;;;;;;;3.97;55.74;101223.63;678075;29;1155;-84
2022/12/04 00:44:35;;;;;;;34.55;19.58;;;;;;;3.97;55.81;101226.22;675459;29;966;-84
2022/12/04 00:44:56;;;;;;;34.95;19.92;;;;;;;3.90;55.75;101216.31;675447;29;1184;-84
2022/12/04 00:45:16;;;;;;;36.22;19.98;;;;;;;3.95;55.79;101222.66;677986;29;1072;-84
2022/12/04 00:45:37;;;;;;;38.77;19.87;;;;;;;3.92;55.84;101214.72;678083;29;1038;-84
2022/12/04 00:45:58;;;;;;;36.20;19.05;;;;;;;3.91;55.89;101219.00;675485;29;852;-84
2022/12/04 00:46:20;;;;;;;36.35;19.40;;;;;;;3.93;55.93;101222.56;677911;29;1114;-84
2022/12/04 00:46:41;;;;;;;35.55;19.30;;;;;;;3.91;56.06;101218.09;672722;29;1002;-84
2022/12/04 00:47:02;;;;;;;36.90;19.85;;;;;;;3.99;56.02;101227.22;677921;29;1209;-84
2022/12/04 00:47:23;;;;;;;37.00;19.13;;;;;;;3.97;56.00;101214.22;677932;29;1017;-84
2022/12/04 00:47:43;;;;;;;37.83;19.35;;;;;;;3.96;55.87;101211.53;675389;29;1974;-84
2022/12/04 00:48:04;;;;;;;36.25;19.08;;;;;;;3.90;56.08;101211.13;675457;29;1059;-84
2022/12/04 00:48:25;;;;;;;38.10;19.92;;;;;;;3.99;56.01;101224.66;675403;29;1114;-84
2022/12/04 00:48:46;;;;;;;39.33;20.38;;;;;;;3.96;55.77;101216.69;670208;29;1108;-84
2022/12/04 00:49:07;;;;;;;40.97;20.90;;;;;;;3.91;55.73;101216.41;675447;29;1193;-84
2022/12/04 00:49:27;;;;;;;38.30;21.00;;;;;;;3.96;55.83;101221.84;677945;29;1224;-84
2022/12/04 00:49:48;;;;;;;36.67;20.70;;;;;;;4.01;55.66;101220.47;678486;29;1108;-84
2022/12/04 00:50:09;;;;;;;36.80;20.23;;;;;;;3.99;55.75;101216.91;675318;29;1166;-84
2022/12/04 00:50:30;;;;;;;37.55;19.63;;;;;;;4.06;55.41;101229.38;675250;29;1375;-83
2022/12/04 00:50:51;;;;;;;36.92;19.70;;;;;;;4.06;55.97;101231.06;683418;29;756;-84
2022/12/04 00:51:15;;;;;;;35.83;19.55;;;;;;;3.98;55.50;101212.50;680564;29;1011;-84
2022/12/04 00:51:36;;;;;;;35.60;19.55;;;;;;;3.96;55.73;101208.94;680641;29;977;-84
2022/12/04 00:51:56;;;;;;;34.17;18.70;;;;;;;3.98;55.48;101212.50;677973;29;1069;-84
2022/12/04 00:52:17;;;;;;;36.58;19.38;;;;;;;3.99;55.67;101216.91;675299;29;1154;-84
2022/12/04 00:52:37;;;;;;;36.78;19.27;;;;;;;3.98;55.97;101215.09;678019;29;1005;-84
2022/12/04 00:52:58;;;;;;;35.90;19.70;;;;;;;4.02;55.90;101221.34;675386;29;1038;-84
2022/12/04 00:53:19;;;;;;;38.28;19.88;;;;;;;3.94;55.82;101207.97;677934;29;1330;-84
2022/12/04 00:53:40;;;;;;;38.42;20.27;;;;;;;4.03;55.83;101231.78;678037;29;1005;-84
2022/12/04 00:54:01;;;;;;;38.10;19.70;;;;;;;3.97;55.82;101218.47;678041;29;1271;-84
2022/12/04 00:54:21;;;;;;;34.60;19.33;;;;;;;3.90;56.03;101209.47;678001;29;1285;-84
2022/12/04 00:54:43;;;;;;;34.77;19.23;;;;;;;3.98;56.07;101220.25;678004;29;1202;-84
2022/12/04 00:55:04;;;;;;;36.80;20.00;;;;;;;3.91;55.70;101205.16;675447;29;976;-84
2022/12/04 00:55:24;;;;;;;36.50;19.17;;;;;;;3.94;56.00;101214.00;670265;29;1086;-84
2022/12/04 00:55:45;;;;;;;35.03;19.05;;;;;;;3.97;55.94;101213.31;675434;29;1238;-84
2022/12/04 00:56:08;;;;;;;36.57;18.97;;;;;;;3.96;55.84;101219.28;677989;29;1066;-84
2022/12/04 00:56:29;;;;;;;37.38;19.55;;;;;;;3.94;56.00;101214.00;678273;29;1096;-84
2022/12/04 00:56:49;;;;;;;37.72;19.63;;;;;;;3.97;55.84;101215.88;672638;29;1291;-84
2022/12/04 00:57:10;;;;;;;35.93;19.77;;;;;;;3.93;56.17;101222.56;672659;29;1206;-84
2022/12/04 00:57:30;;;;;;;35.55;19.80;;;;;;;3.94;55.61;101205.38;672686;29;1343;-84
2022/12/04 00:57:51;;;;;;;34.90;19.60;;;;;;;3.94;55.97;101201.09;672818;29;1210;-84
2022/12/04 00:58:15;;;;;;;35.67;19.60;;;;;;;3.98;55.80;101215.09;675019;29;1180;-84
2022/12/04 00:58:36;;;;;;;33.72;19.33;;;;;;;3.97;55.59;101210.72;675453;29;1073;-84
2022/12/04 00:59:00;;;;;;;33.60;19.73;;;;;;;3.96;55.92;101212.44;675412;29;784;-84
2022/12/04 00:59:20;;;;;;;33.50;19.10;;;;;;;3.90;55.83;101208.56;675178;29;1275;-84
2022/12/04 00:59:41;;;;;;;35.45;19.00;;;;;;;3.99;55.72;101222.06;672804;29;1090;-84
2022/12/04 01:00:03;;;;;;;33.37;18.10;;;;;;;3.91;55.70;101218.09;672872;29;1113;-84
2022/12/04 01:00:24;;;;;;;35.25;19.20;;;;;;;3.90;56.14;101208.56;670205;29;1113;-84
2022/12/04 01:00:44;;;;;;;32.67;18.90;;;;;;;3.82;55.89;101198.63;672655;29;1247;-84
2022/12/04 01:01:11;;;;;;;35.40;19.17;;;;;;;3.81;56.00;101208.88;675285;29;1194;-84
2022/12/04 01:01:31;;;;;;;33.65;18.23;;;;;;;3.92;55.97;101215.59;672621;29;1329;-84
2022/12/04 01:01:52;;;;;;;34.60;18.38;;;;;;;3.97;56.08;101224.53;672886;29;1310;-84
2022/12/04 01:02:13;;;;;;;35.20;19.33;;;;;;;3.96;56.12;101216.69;672651;29;1569;-85
2022/12/04 01:02:33;;;;;;;34.47;19.13;;;;;;;3.95;56.02;101214.91;675370;29;1170;-84
2022/12/04 01:02:54;;;;;;;35.20;19.75;;;;;;;3.94;55.73;101213.13;675405;29;769;-84
2022/12/04 01:03:14;;;;;;;33.80;19.37;;;;;;;3.96;56.09;101216.69;677789;29;1242;-84
2022/12/04 01:03:57;;;;;;;33.35;19.05;;;;;;;4.03;56.05;101213.69;683154;29;1320;-84
2022/12/04 01:04:17;;;;;;;33.75;18.38;;;;;;;3.96;55.97;101206.34;680509;29;1315;-84
2022/12/04 01:04:38;;;;;;;32.00;18.37;;;;;;;3.97;55.95;101208.13;678014;29;1074;-84
2022/12/04 01:05:00;;;;;;;33.08;18.40;;;;;;;3.95;55.72;101209.75;675389;29;1288;-84
2022/12/04 01:05:20;;;;;;;32.75;18.50;;;;;;;3.98;55.81;101207.34;675224;29;1216;-84
2022/12/04 01:05:43;;;;;;;33.43;18.73;;;;;;;3.95;56.09;101207.16;675429;29;1016;-84
2022/12/04 01:06:06;;;;;;;33.22;18.90;;;;;;;4.02;56.04;101217.06;675166;29;1037;-84
2022/12/04 01:06:31;;;;;;;34.60;19.10;;;;;;;3.99;56.03;101200.50;680359;29;1098;-84
2022/12/04 01:06:52;;;;;;;36.58;19.40;;;;;;;4.03;55.67;101213.69;683066;29;1008;-84
2022/12/04 01:07:13;;;;;;;40.42;19.50;;;;;;;3.96;55.75;101203.78;680545;29;887;-83
2022/12/04 01:07:34;;;;;;;40.95;18.88;;;;;;;3.96;55.95;101201.19;680592;29;2040;-84
2022/12/04 01:07:55;;;;;;;40.97;18.47;;;;;;;4.03;55.60;101221.44;680601;29;1057;-84
2022/12/04 01:08:15;;;;;;;37.20;18.83;;;;;;;3.97;55.59;101200.38;680600;29;1111;-84
2022/12/04 01:08:36;;;;;;;35.63;19.10;;;;;;;4.01;55.93;101215.28;678006;29;1063;-84
2022/12/04 01:08:58;;;;;;;33.93;19.07;;;;;;;4.04;55.79;101215.47;683403;29;712;-84
2022/12/04 01:09:19;;;;;;;34.00;18.45;;;;;;;4.04;55.89;101218.06;683237;29;1123;-84
2022/12/04 01:09:39;;;;;;;32.17;18.17;;;;;;;3.99;55.63;101211.72;683275;29;1114;-84
2022/12/04 01:10:00;;;;;;;32.93;18.27;;;;;;;3.96;55.76;101211.53;683794;28;733;-84
2022/12/04 01:10:20;;;;;;;32.58;18.17;;;;;;;3.97;56.12;101203.88;683123;29;1083;-84
2022/12/04 01:10:41;;;;;;;31.58;17.95;;;;;;;4.00;55.80;101216.09;680498;28;1224;-84
2022/12/04 01:11:05;;;;;;;31.05;17.35;;;;;;;4.03;55.83;101218.84;677872;29;1134;-84
2022/12/04 01:11:27;;;;;;;31.88;18.02;;;;;;;3.88;55.75;101202.41;680422;29;1254;-84
2022/12/04 01:11:47;;;;;;;30.88;17.98;;;;;;;3.89;56.08;101201.59;680561;29;1386;-84
2022/12/04 01:12:08;;;;;;;32.90;18.40;;;;;;;3.96;55.80;101206.34;675233;29;1326;-84
2022/12/04 01:12:29;;;;;;;33.50;18.10;;;;;;;3.90;56.21;101204.28;675277;29;1298;-84
2022/12/04 01:12:52;;;;;;;33.83;17.58;;;;;;;3.91;55.96;101205.16;675429;29;1383;-84
2022/12/04 01:13:12;;;;;;;32.50;16.95;;;;;;;3.96;55.83;101206.34;675198;29;1426;-84
2022/12/04 01:13:33;;;;;;;33.95;17.35;;;;;;;3.99;55.72;101200.50;675328;29;1175;-84
2022/12/04 01:13:55;;;;;;;33.30;17.50;;;;;;;3.98;56.23;101204.75;675395;29;1042;-84
2022/12/04 01:14:15;;;;;;;34.60;18.75;;;;;;;4.01;56.06;101210.13;675262;29;1310;-84
2022/12/04 01:14:36;;;;;;;33.28;18.77;;;;;;;3.93;55.76;101201.00;675433;29;1198;-84
2022/12/04 01:14:57;;;;;;;33.93;19.13;;;;;;;3.92;55.88;101201.81;675439;29;847;-84
2022/12/04 01:15:18;;;;;;;32.43;18.20;;;;;;;3.90;56.17;101200.81;677837;29;1052;-84
2022/12/04 01:15:41;;;;;;;33.35;18.25;;;;;;;3.99;55.89;101206.56;680501;29;1214;-84
2022/12/04 01:16:02;;;;;;;32.00;17.90;;;;;;;3.99;56.04;101209.16;677868;29;1269;-84
2022/12/04 01:16:31;;;;;;;31.75;17.80;;;;;;;3.99;55.94;101205.66;672785;29;1125;-84
2022/12/04 01:16:51;;;;;;;30.58;17.75;;;;;;;3.94;56.02;101213.13;677778;29;1273;-84
2022/12/04 01:17:12;;;;;;;31.13;17.90;;;;;;;3.95;55.76;101207.16;680551;29;1120;-84
2022/12/04 01:17:33;;;;;;;32.35;18.20;;;;;;;3.93;56.06;101201.88;680537;29;1266;-84
2022/12/04 01:17:54;;;;;;;33.20;18.07;;;;;;;3.97;56.07;101209.03;672811;29;845;-84
2022/12/04 01:18:15;;;;;;;34.67;18.25;;;;;;;3.96;55.83;101206.34;672737;29;1088;-84
2022/12/04 01:18:36;;;;;;;35.10;18.33;;;;;;;4.00;55.84;101216.09;675323;29;1130;-84
2022/12/04 01:18:56;;;;;;;36.10;18.83;;;;;;;3.93;56.19;101195.84;677960;29;748;-84
2022/12/04 01:19:17;;;;;;;37.08;18.33;;;;;;;3.97;55.78;101203.88;675295;29;1102;-84
2022/12/04 01:19:37;;;;;;;36.50;17.73;;;;;;;4.01;55.91;101204.97;675354;29;1338;-84
2022/12/04 01:19:58;;;;;;;34.93;17.53;;;;;;;4.02;55.60;101211.91;675318;29;1226;-84
2022/12/04 01:20:19;;;;;;;33.53;18.30;;;;;;;4.04;56.02;101210.31;675282;29;1194;-84
2022/12/04 01:20:45;;;;;;;33.40;19.17;;;;;;;4.06;55.78;101219.03;672680;29;1254;-83
2022/12/04 01:21:05;;;;;;;34.65;19.20;;;;;;;4.06;55.85;101221.63;675345;29;1025;-85
2022/12/04 01:21:26;;;;;;;34.43;18.73;;;;;;;4.03;55.94;101212.78;680384;29;1387;-84
2022/12/04 01:21:47;;;;;;;34.38;18.63;;;;;;;3.98;55.75;101207.34;675269;29;1152;-84
2022/12/04 01:22:07;;;;;;;33.20;18.20;;;;;;;3.95;56.02;101204.56;680525;29;1030;-84
2022/12/04 01:22:28;;;;;;;32.67;18.27;;;;;;;3.92;55.72;101204.41;675339;29;1340;-84
2022/12/04 01:22:49;;;;;;;30.97;17.47;;;;;;;3.90;56.12;101200.81;675278;29;1046;-84
2022/12/04 01:23:09;;;;;;;32.33;17.50;;;;;;;3.96;55.75;101208.94;677882;29;1018;-84
2022/12/04 01:23:30;;;;;;;33.83;18.17;;;;;;;3.98;55.80;101209.91;675237;29;1069;-85
2022/12/04 01:23:51;;;;;;;34.03;18.23;;;;;;;3.94;55.80;101207.97;675353;29;1205;-84
2022/12/04 01:24:11;;;;;;;32.60;18.13;;;;;;;3.92;55.67;101204.41;677779;29;1229;-84
2022/12/04 01:24:32;;;;;;;32.72;17.65;;;;;;;4.02;55.87;101213.59;675220;29;1174;-84
2022/12/04 01:24:55;;;;;;;34.83;18.55;;;;;;;3.99;56.05;101211.72;672693;29;1283;-84
2022/12/04 01:25:16;;;;;;;34.78;18.33;;;;;;;3.94;55.98;101198.50;677894;29;1107;-84
2022/12/04 01:25:37;;;;;;;32.27;17.93;;;;;;;4.00;55.95;101218.69;683278;29;1040;-84
2022/12/04 01:25:58;;;;;;;32.00;17.52;;;;;;;3.97;55.97;101208.13;683323;29;1111;-84
2022/12/04 01:26:19;;;;;;;31.46;18.00;;;;;;;4.00;55.99;101208.34;680431;28;1280;-84
2022/12/04 01:26:40;;;;;;;30.98;17.88;;;;;;;4.04;55.70;101210.31;675173;29;1187;-84
2022/12/04 01:27:00;;;;;;;29.80;17.00;;;;;;;3.97;55.84;101202.97;672762;29;750;-84
2022/12/04 01:27:21;;;;;;;30.58;16.85;;;;;;;4.01;55.68;101204.06;672748;29;1250;-84
2022/12/04 01:27:42;;;;;;;30.50;16.90;;;;;;;3.99;55.77;101197.91;675089;29;1970;-84
2022/12/04 01:28:03;;;;;;;30.42;17.45;;;;;;;4.01;55.88;101204.06;675203;29;1076;-84
2022/12/04 01:28:24;;;;;;;32.78;18.23;;;;;;;3.99;55.82;101200.50;672633;29;1124;-84
2022/12/04 01:28:45;;;;;;;33.95;18.60;;;;;;;4.04;55.85;101210.31;675320;29;1207;-84
2022/12/04 01:29:05;;;;;;;34.25;18.80;;;;;;;4.01;55.82;101201.47;677823;29;1302;-84
2022/12/04 01:29:26;;;;;;;32.22;18.35;;;;;;;3.95;55.74;101204.56;680542;29;1112;-84
2022/12/04 01:29:46;;;;;;;32.17;18.57;;;;;;;3.97;56.04;101209.03;677880;29;1181;-84
2022/12/04 01:30:07;;;;;;;30.27;17.42;;;;;;;3.91;55.70;101192.25;675259;29;1170;-84
2022/12/04 01:30:28;;;;;;;30.40;17.40;;;;;;;3.99;56.10;101205.66;672747;29;1071;-84
2022/12/04 01:30:58;;;;;;;29.67;16.90;;;;;;;4.06;55.89;101215.56;675330;29;1137;-84
2022/12/04 01:31:20;;;;;;;28.67;17.13;;;;;;;4.02;55.68;101206.75;675198;29;1002;-84
2022/12/04 01:31:41;;;;;;;29.85;17.38;;;;;;;4.02;55.55;101204.16;672654;29;1182;-84
2022/12/04 01:32:02;;;;;;;30.83;17.88;;;;;;;4.00;55.72;101205.75;675322;29;1070;-84
2022/12/04 01:32:34;;;;;;;31.00;17.70;;;;;;;4.05;55.67;101206.91;670215;29;1299;-84
2022/12/04 01:32:54;;;;;;;29.65;17.30;;;;;;;4.11;55.74;101212.47;675336;29;921;-84
2022/12/04 01:33:15;;;;;;;30.88;17.33;;;;;;;4.03;55.68;101199.88;680370;29;1306;-84
2022/12/04 01:33:36;;;;;;;31.97;17.43;;;;;;;4.10;55.60;101215.84;678014;29;1130;-84
2022/12/04 01:33:57;;;;;;;32.96;17.10;;;;;;;4.10;55.41;101210.69;680479;29;851;-84
2022/12/04 01:34:18;;;;;;;30.80;16.92;;;;;;;4.05;55.64;101206.03;677819;29;1260;-84
2022/12/04 01:34:38;;;;;;;30.30;17.00;;;;;;;3.99;55.73;101191.06;677724;29;1100;-84
2022/12/04 01:34:59;;;;;;;29.58;16.98;;;;;;;4.02;55.79;101203.25;680403;29;816;-84
2022/12/04 01:35:20;;;;;;;30.75;17.80;;;;;;;4.02;55.64;101206.75;675041;29;1330;-84
2022/12/04 01:35:40;;;;;;;31.30;18.13;;;;;;;4.01;55.87;101204.06;672731;29;965;-84
2022/12/04 01:36:03;;;;;;;30.87;17.83;;;;;;;4.00;55.62;101195.44;677994;29;829;-84
2022/12/04 01:36:26;;;;;;;33.17;17.80;;;;;;;4.09;55.75;101213.16;677954;29;1173;-84
2022/12/04 01:36:47;;;;;;;32.33;17.90;;;;;;;4.08;55.73;101212.28;677585;29;1200;-85
2022/12/04 01:37:07;;;;;;;30.85;17.80;;;;;;;3.99;55.51;101198.81;679664;29;1191;-84
2022/12/04 01:37:31;;;;;;;30.70;17.60;;;;;;;4.05;55.68;101199.16;680537;29;1222;-84
2022/12/04 01:37:52;;;;;;;32.13;17.38;;;;;;;4.01;55.51;101199.81;677954;29;1159;-84
2022/12/04 01:38:12;;;;;;;33.00;17.57;;;;;;;4.03;55.38;101200.78;672617;29;1251;-84
2022/12/04 01:38:34;;;;;;;32.35;17.33;;;;;;;4.05;55.43;101208.63;672640;29;1228;-84
2022/12/04 01:38:55;;;;;;;30.75;17.10;;;;;;;4.06;55.66;101205.25;677977;29;1268;-84
2022/12/04 01:39:16;;;;;;;31.02;17.25;;;;;;;4.08;55.82;101206.22;675152;29;1101;-84
2022/12/04 01:39:37;;;;;;;30.73;17.05;;;;;;;4.02;55.42;101211.91;675265;29;1171;-84
2022/12/04 01:39:58;;;;;;;31.90;17.25;;;;;;;4.07;55.58;101219.94;677852;29;1219;-84
2022/12/04 01:40:18;;;;;;;31.50;17.17;;;;;;;4.04;55.88;101210.31;677740;29;1401;-84
2022/12/04 01:40:43;;;;;;;31.67;17.80;;;;;;;4.09;55.69;101219.25;683172;29;1280;-84
2022/12/04 01:41:05;;;;;;;30.67;17.50;;;;;;;4.07;55.86;101209.59;680467;29;1219;-84
2022/12/04 01:41:28;;;;;;;32.75;17.77;;;;;;;4.10;55.88;101218.44;680474;29;1099;-84
2022/12/04 01:41:48;;;;;;;32.30;17.20;;;;;;;4.08;55.33;101207.13;677733;29;1226;-84
2022/12/04 01:42:13;;;;;;;32.63;17.23;;;;;;;4.11;55.58;101214.19;680327;29;1163;-84